createdAt,value
2022-09-07T15:59:43.706Z,25.88
2022-09-07T16:04:57.103Z,25.67
2022-09-07T16:08:24.689Z,25.50
2022-09-07T16:10:12.317Z,25.44
2022-09-07T16:15:27.005Z,25.37
2022-09-07T16:17:53.905Z,25.32
2022-09-07T16:20:20.735Z,25.13
2022-09-07T16:25:35.224Z,24.94
2022-09-07T16:28:02.481Z,24.78
2022-09-07T16:30:29.144Z,24.66
2022-09-07T16:32:56.027Z,24.56
2022-09-07T16:35:23.705Z,24.42
2022-09-07T16:40:41.792Z,24.25
2022-09-07T16:43:09.995Z,24.09
2022-09-07T16:48:23.380Z,23.91
2022-09-07T16:51:00.405Z,23.85
2022-09-07T16:53:30.875Z,23.72
2022-09-07T16:56:06.288Z,23.60
2022-09-07T16:58:36.201Z,23.71
2022-09-07T17:01:05.481Z,23.62
2022-09-07T17:03:32.684Z,23.57
2022-09-07T17:06:04.491Z,23.40
2022-09-07T17:08:31.234Z,23.41
2022-09-07T17:11:05.982Z,23.32
2022-09-07T17:13:34.327Z,23.31
2022-09-07T17:16:09.726Z,23.31
2022-09-07T17:21:23.705Z,23.07
2022-09-07T17:23:55.243Z,23.10
2022-09-07T17:26:26.912Z,22.98
2022-09-07T17:28:56.662Z,22.90
2022-09-07T17:34:18.540Z,22.54
2022-09-07T17:36:45.416Z,22.58
2022-09-07T17:39:17.256Z,22.46
2022-09-07T17:41:45.381Z,22.33
2022-09-07T17:44:12.211Z,22.18
2022-09-07T17:46:39.463Z,22.25
2022-09-07T17:49:10.336Z,21.99
2022-09-07T17:51:37.171Z,22.15
2022-09-07T17:54:13.174Z,22.13
2022-09-07T17:56:41.110Z,21.95
2022-09-07T18:01:55.153Z,21.92
2022-09-07T18:04:22.816Z,21.95
2022-09-07T18:06:49.703Z,21.81
2022-09-07T18:09:16.858Z,21.70
2022-09-07T18:11:48.515Z,21.46
2022-09-07T18:14:15.543Z,21.55
2022-09-07T18:16:45.015Z,21.49
2022-09-07T18:19:12.388Z,21.49
2022-09-07T18:21:41.987Z,21.55
2022-09-07T18:24:29.115Z,21.44
2022-09-07T18:26:55.879Z,21.23
2022-09-07T18:29:29.907Z,21.39
2022-09-07T18:31:58.966Z,21.31
2022-09-07T18:34:26.251Z,21.24
2022-09-07T18:36:52.966Z,21.23
2022-09-07T18:39:19.549Z,21.23
2022-09-07T18:41:46.267Z,21.13
2022-09-07T18:46:59.947Z,21.12
2022-09-07T18:49:26.645Z,21.03
2022-09-07T18:54:41.280Z,21.25
2022-09-07T18:57:08.373Z,21.44
2022-09-07T18:59:34.958Z,21.43
2022-09-07T19:02:04.819Z,21.36
2022-09-07T19:07:20.750Z,21.89
2022-09-07T19:09:48.373Z,21.71
2022-09-07T19:12:15.341Z,21.44
2022-09-07T19:14:42.463Z,21.15
2022-09-07T19:17:11.052Z,21.50
2022-09-07T19:19:39.081Z,21.54
2022-09-07T19:22:06.154Z,21.24
2022-09-07T19:24:33.301Z,21.29
2022-09-07T19:27:01.149Z,21.57
2022-09-07T19:29:28.684Z,21.42
2022-09-07T19:32:04.875Z,21.57
2022-09-07T19:34:42.492Z,21.59
2022-09-07T19:37:12.117Z,21.72
2022-09-07T19:39:39.191Z,21.78
2022-09-07T19:42:06.616Z,21.49
2022-09-07T19:44:33.521Z,21.59
2022-09-07T19:47:00.977Z,21.63
2022-09-07T19:49:28.711Z,21.69
2022-09-07T19:51:57.064Z,21.71
2022-09-07T19:54:24.061Z,21.73
2022-09-07T19:56:51.104Z,21.81
2022-09-07T19:59:19.609Z,21.92
2022-09-07T20:01:48.359Z,22.01
2022-09-07T20:04:20.756Z,21.91
2022-09-07T20:06:50.453Z,21.73
2022-09-07T20:09:19.295Z,21.85
2022-09-07T20:11:47.794Z,21.86
2022-09-07T20:14:15.639Z,21.68
2022-09-07T20:16:42.494Z,21.54
2022-09-07T20:19:11.882Z,21.73
2022-09-07T20:21:41.054Z,21.35
2022-09-07T20:24:07.740Z,21.23
2022-09-07T20:26:34.558Z,21.31
2022-09-07T20:29:25.611Z,21.45
2022-09-07T20:31:49.191Z,20.76
2022-09-07T20:34:16.016Z,20.74
2022-09-07T20:36:42.844Z,20.83
2022-09-07T20:39:15.389Z,20.83
2022-09-07T20:41:42.219Z,21.18
2022-09-07T20:44:09.123Z,20.45
2022-09-07T20:46:36.556Z,20.66
2022-09-07T20:49:04.876Z,20.43
2022-09-07T20:51:31.540Z,20.66
2022-09-07T20:53:58.296Z,20.69
2022-09-07T20:56:27.642Z,20.03
2022-09-07T20:58:56.645Z,19.45
2022-09-07T21:01:24.218Z,19.46
2022-09-07T21:03:53.141Z,19.78
2022-09-07T21:06:21.347Z,19.49
2022-09-07T21:08:48.314Z,19.61
2022-09-07T21:11:23.559Z,19.53
2022-09-07T21:14:02.011Z,19.90
2022-09-07T21:16:29.273Z,20.07
2022-09-07T21:18:58.249Z,20.39
2022-09-07T21:21:27.350Z,20.47
2022-09-07T21:24:00.098Z,20.52
2022-09-07T21:26:29.661Z,20.12
2022-09-07T21:29:01.504Z,20.15
2022-09-07T21:31:30.042Z,20.36
2022-09-07T21:33:58.603Z,20.47
2022-09-07T21:36:25.896Z,20.58
2022-09-07T21:38:54.361Z,20.67
2022-09-07T21:41:24.282Z,20.62
2022-09-07T21:43:58.564Z,20.62
2022-09-07T21:46:25.774Z,20.60
2022-09-07T21:48:52.426Z,20.57
2022-09-07T21:51:19.055Z,20.52
2022-09-07T21:53:46.000Z,20.45
2022-09-07T21:56:14.324Z,20.31
2022-09-07T21:58:41.450Z,20.45
2022-09-07T22:01:14.460Z,20.47
2022-09-07T22:03:41.118Z,19.76
2022-09-07T22:06:08.794Z,19.57
2022-09-07T22:08:37.242Z,19.38
2022-09-07T22:11:06.611Z,18.84
2022-09-07T22:13:33.868Z,18.87
2022-09-07T22:16:00.917Z,19.22
2022-09-07T22:18:30.331Z,19.30
2022-09-07T22:21:18.280Z,19.62
2022-09-07T22:23:48.847Z,19.80
2022-09-07T22:26:18.521Z,19.85
2022-09-07T22:28:45.093Z,19.34
2022-09-07T22:31:17.044Z,19.14
2022-09-07T22:33:45.125Z,19.28
2022-09-07T22:36:16.009Z,18.81
2022-09-07T22:38:45.048Z,18.95
2022-09-07T22:41:16.603Z,18.73
2022-09-07T22:43:44.135Z,18.80
2022-09-07T22:46:11.906Z,19.03
2022-09-07T22:48:39.898Z,18.93
2022-09-07T22:51:08.847Z,19.10
2022-09-07T22:53:38.624Z,19.11
2022-09-07T22:56:09.737Z,19.23
2022-09-07T22:58:37.354Z,19.33
2022-09-07T23:01:05.570Z,19.38
2022-09-07T23:03:33.147Z,19.43
2022-09-07T23:06:00.749Z,19.46
2022-09-07T23:08:27.946Z,19.39
2022-09-07T23:10:54.662Z,19.51
2022-09-07T23:13:22.031Z,19.37
2022-09-07T23:15:49.546Z,19.28
2022-09-07T23:18:18.199Z,19.26
2022-09-07T23:20:44.841Z,18.65
2022-09-07T23:23:13.338Z,18.75
2022-09-07T23:25:41.847Z,18.38
2022-09-07T23:28:12.493Z,17.99
2022-09-07T23:30:40.660Z,17.94
2022-09-07T23:33:07.770Z,18.21
2022-09-07T23:35:34.397Z,18.16
2022-09-07T23:38:01.020Z,17.90
2022-09-07T23:40:30.308Z,17.81
2022-09-07T23:42:57.274Z,17.41
2022-09-07T23:45:24.509Z,17.46
2022-09-07T23:47:51.337Z,17.31
2022-09-07T23:50:18.086Z,17.24
2022-09-07T23:52:44.675Z,17.44
2022-09-07T23:55:11.647Z,17.61
2022-09-07T23:57:38.904Z,17.33
